EHWO/WOE METAR and TAF weather

Enter ICAO airport designator
Station Type Date Time Source
EHWO METAR 2019/06/20 07:25 UTC NOAA

EHWO 200725Z AUTO 21009KT 190V250 9999 OVC019 16/13 Q1010 WHT 22008KT 9000 FEW015 BKN018 TEMPO FEW020 BKN024


Station Type Date Time Source
EHWO Decoded METAR 2019/06/20 07:25 UTC NOAA

Woensdrecht, Netherlands (EHWO) 51-27N 004-20E 17M
Jun 20, 2019 - 03:25 AM EDT / 2019.06.20 0725 UTC
Wind: from the SSW (210 degrees) at 10 MPH (9 KT) (direction variable):0
Visibility: greater than 7 mile(s):0
Sky conditions: overcast
Temperature: 60 F (16 C)
Dew Point: 55 F (13 C)
Relative Humidity: 82%
Pressure (altimeter): 29.83 in. Hg (1010 hPa)
ob: EHWO 200725Z AUTO 21009KT 190V250 9999 OVC019 16/13 Q1010 WHT 22008KT 9000 FEW015 BKN018 TEMPO FEW020 BKN024
cycle: 7

Station Type Date Time Source
EHWO TAF 2019/06/20 05:03 UTC NOAA

TAF EHWO 200438Z 2005/2017 23007KT 9999 FEW008 SCT012 BKN050
TEMPO 2005/2007 FEW006 SCT060
BECMG 2007/2009 FEW012 BKN015
BECMG 2009/2011 27010KT SCT020 PROB40
TEMPO 2010/2016 28012G25KT FEW020CB BKN025

Example: see airport list